Terminal Aerodrome Forecast
Issued by NWS Albany, NY

Home | Current Version | Previous Version | Text Only | Print | Product List | Glossary On
Versions: 1 2 3 4 5 6 7 8 9 10 11 12 13 14 15 16 17 18 19 20
000
FTUS41 KALY 261135
TAFPOU
TAF
KPOU 261135Z 2612/2712 25004KT P6SM SKC
     FM261600 30010G16KT P6SM SCT040 SCT250
     FM262300 VRB03KT P6SM SKC
     FM270500 00000KT 5SM BR SKC=

USA.gov is the U.S. government's official web portal to all federal, state and local government web resources and services.